Roscoe, Missouri
Current Conditions -  °F | °C
As of 3:35 PM on Saturday 25 Oct 2014 (Local Time) from KGLY Reporting Station
Haze Haze  
Wind Chill: 81°   Ceiling: Unl
Heat Index: 82°   Visibility: 1.5mi
Dew Point: 63°   Wind: 0mph
Humidity: 54%   Direction: NA
Pressure: 30.03"   Gusts: NA
Location:  37.97°N, 93.81°W
Report Text: KGLY 252035Z AUTO 00000KT 1 1/2SM HZ CLR 27/17 A3003 RMK AO2
Loading
Personal Weather Stations






























Interactive Weather Map
Tropical Storm Tracking
New forecast layout! Learn more

10-Day Weather Forecast

Advertisements
Track Severe Weather on mobile